Time;durP1;ratioP1;P1;durP2;ratioP2;P2;SDS_P1;SDS_P2;PMS_P1;PMS_P2;Temp;Humidity;BMP_temperature;BMP_pressure;BME280_temperature;BME280_humidity;BME280_pressure;Samples;Min_cycle;Max_cycle;Signal;HPM_P1;HPM_P2
2022/01/03 00:00:32;;;;;;;1.65;1.55;;;;;;;;;;5058869;28;20213;-54
2022/01/03 00:03:00;;;;;;;1.60;1.50;;;;;;;;;;5058663;28;20259;-54
2022/01/03 00:05:28;;;;;;;1.88;1.50;;;;;;;;;;5058375;28;20501;-54
2022/01/03 00:07:57;;;;;;;1.42;1.33;;;;;;;;;;5058606;28;20217;-54
2022/01/03 00:10:27;;;;;;;2.50;1.65;;;;;;;;;;5058814;28;20240;-54
2022/01/03 00:12:54;;;;;;;1.95;1.60;;;;;;;;;;5058448;28;20752;-54
2022/01/03 00:15:23;;;;;;;1.50;1.40;;;;;;;;;;5057833;28;20208;-54
2022/01/03 00:17:53;;;;;;;1.63;1.48;;;;;;;;;;5057796;28;20267;-54
2022/01/03 00:20:21;;;;;;;1.67;1.55;;;;;;;;;;5057651;28;20205;-54
2022/01/03 00:22:51;;;;;;;1.88;1.20;;;;;;;;;;5057563;28;20224;-54
2022/01/03 00:25:19;;;;;;;1.50;1.40;;;;;;;;;;5057727;28;20217;-54
2022/01/03 00:27:51;;;;;;;1.60;1.50;;;;;;;;;;5057669;28;20204;-54
2022/01/03 00:30:21;;;;;;;2.17;1.63;;;;;;;;;;5057563;28;20551;-54
2022/01/03 00:32:49;;;;;;;2.00;1.40;;;;;;;;;;5059277;28;20205;-54
2022/01/03 00:35:17;;;;;;;1.27;1.17;;;;;;;;;;5058245;28;20221;-54
2022/01/03 00:37:45;;;;;;;1.75;1.42;;;;;;;;;;5058277;28;20205;-54
2022/01/03 00:40:13;;;;;;;1.80;1.45;;;;;;;;;;5058832;28;20574;-54
2022/01/03 00:42:41;;;;;;;1.40;1.20;;;;;;;;;;5057909;28;20248;-54
2022/01/03 00:45:11;;;;;;;2.08;1.50;;;;;;;;;;5057248;28;20240;-54
2022/01/03 00:47:38;;;;;;;1.48;1.38;;;;;;;;;;5057796;28;20205;-54
2022/01/03 00:50:07;;;;;;;1.23;1.13;;;;;;;;;;5058008;28;20209;-54
2022/01/03 00:52:35;;;;;;;1.40;1.30;;;;;;;;;;5058177;28;20209;-54
2022/01/03 00:55:02;;;;;;;1.67;1.38;;;;;;;;;;5057001;28;20208;-54
2022/01/03 00:57:36;;;;;;;1.95;1.30;;;;;;;;;;5058173;28;20208;-54
2022/01/03 01:00:06;;;;;;;2.00;1.20;;;;;;;;;;5058270;28;20616;-54
2022/01/03 01:02:37;;;;;;;1.75;1.20;;;;;;;;;;5058371;28;20212;-54
2022/01/03 01:05:04;;;;;;;1.48;1.38;;;;;;;;;;5057759;28;20239;-54
2022/01/03 01:07:33;;;;;;;0.90;0.90;;;;;;;;;;5058298;28;20205;-54
2022/01/03 01:10:01;;;;;;;1.35;1.25;;;;;;;;;;5058142;28;20216;-54
2022/01/03 01:12:29;;;;;;;1.73;1.27;;;;;;;;;;5057845;28;20205;-54
2022/01/03 01:14:56;;;;;;;1.70;1.27;;;;;;;;;;5057602;28;20201;-54
2022/01/03 01:17:27;;;;;;;1.33;1.23;;;;;;;;;;5057817;28;20204;-54
2022/01/03 01:19:58;;;;;;;1.35;1.20;;;;;;;;;;5058355;28;20468;-55
2022/01/03 01:22:25;;;;;;;1.13;1.00;;;;;;;;;;5057653;28;20213;-54
2022/01/03 01:25:21;;;;;;;1.25;1.15;;;;;;;;;;5056741;28;20710;-54
2022/01/03 01:27:47;;;;;;;1.20;1.00;;;;;;;;;;5057147;28;20200;-54
2022/01/03 01:30:15;;;;;;;1.42;1.27;;;;;;;;;;5057367;28;20547;-54
2022/01/03 01:32:44;;;;;;;1.48;1.00;;;;;;;;;;5057158;28;20204;-54
2022/01/03 01:35:12;;;;;;;1.75;1.00;;;;;;;;;;5057620;28;20566;-54
2022/01/03 01:37:40;;;;;;;1.20;1.10;;;;;;;;;;5057775;28;20205;-54
2022/01/03 01:40:08;;;;;;;1.08;1.00;;;;;;;;;;5057527;28;20212;-54
2022/01/03 01:42:37;;;;;;;1.30;1.08;;;;;;;;;;5056918;28;20585;-54
2022/01/03 01:45:08;;;;;;;1.00;0.90;;;;;;;;;;5056534;28;20216;-55
2022/01/03 01:47:39;;;;;;;1.63;1.20;;;;;;;;;;5057404;28;20212;-54
2022/01/03 01:50:07;;;;;;;1.30;1.00;;;;;;;;;;5057406;28;20228;-54
2022/01/03 01:52:37;;;;;;;1.30;1.13;;;;;;;;;;5057253;28;20205;-54
2022/01/03 01:55:06;;;;;;;1.63;0.98;;;;;;;;;;5056945;28;20213;-54
2022/01/03 01:57:40;;;;;;;0.98;0.90;;;;;;;;;;5057102;28;20205;-54
2022/01/03 02:00:10;;;;;;;1.33;0.90;;;;;;;;;;5057138;28;20203;-54
2022/01/03 02:02:38;;;;;;;1.45;1.08;;;;;;;;;;5056862;28;20204;-54
2022/01/03 02:05:10;;;;;;;1.10;1.00;;;;;;;;;;5056385;28;20225;-54
2022/01/03 02:07:55;;;;;;;0.80;0.80;;;;;;;;;;5057147;28;20196;-54
2022/01/03 02:10:25;;;;;;;1.05;0.95;;;;;;;;;;5057400;28;20204;-54
2022/01/03 02:12:52;;;;;;;1.08;0.95;;;;;;;;;;5057417;28;20231;-54
2022/01/03 02:15:20;;;;;;;1.00;1.00;;;;;;;;;;5057087;28;20216;-54
2022/01/03 02:17:49;;;;;;;0.80;0.80;;;;;;;;;;5056190;28;20241;-54
2022/01/03 02:20:20;;;;;;;0.85;0.73;;;;;;;;;;5056900;28;20209;-55
2022/01/03 02:22:48;;;;;;;0.77;0.77;;;;;;;;;;5057309;28;20215;-55
2022/01/03 02:25:16;;;;;;;1.02;0.85;;;;;;;;;;5057206;28;20220;-54
2022/01/03 02:27:44;;;;;;;1.02;0.70;;;;;;;;;;5057099;28;20480;-54
2022/01/03 02:30:14;;;;;;;0.90;0.90;;;;;;;;;;5057329;28;20482;-54
2022/01/03 02:32:41;;;;;;;1.55;0.80;;;;;;;;;;5057175;28;20205;-54
2022/01/03 02:35:09;;;;;;;0.85;0.80;;;;;;;;;;5056793;28;20245;-54
2022/01/03 02:37:39;;;;;;;1.15;1.02;;;;;;;;;;5056912;28;20205;-54
2022/01/03 02:40:07;;;;;;;0.65;0.65;;;;;;;;;;5056921;28;20228;-54
2022/01/03 02:42:34;;;;;;;0.93;0.88;;;;;;;;;;5057230;28;20205;-54
2022/01/03 02:45:03;;;;;;;1.02;0.82;;;;;;;;;;5056243;28;20213;-54
2022/01/03 02:47:30;;;;;;;0.80;0.80;;;;;;;;;;5056366;28;20209;-54
2022/01/03 02:49:57;;;;;;;1.23;0.80;;;;;;;;;;5056804;28;20492;-54
2022/01/03 02:52:25;;;;;;;0.80;0.70;;;;;;;;;;5057006;28;20204;-54
2022/01/03 02:54:54;;;;;;;1.00;0.88;;;;;;;;;;5056918;28;20205;-54
2022/01/03 02:57:23;;;;;;;0.70;0.70;;;;;;;;;;5057105;28;20212;-54
2022/01/03 02:59:54;;;;;;;1.17;0.60;;;;;;;;;;5056305;28;20599;-54
2022/01/03 03:02:22;;;;;;;0.95;0.60;;;;;;;;;;5056579;28;20241;-54
2022/01/03 03:04:53;;;;;;;0.70;0.70;;;;;;;;;;5055340;28;20216;-54
2022/01/03 03:07:21;;;;;;;0.60;0.60;;;;;;;;;;5057810;28;20295;-54
2022/01/03 03:09:48;;;;;;;1.23;0.65;;;;;;;;;;5060272;28;20216;-54
2022/01/03 03:12:18;;;;;;;0.52;0.50;;;;;;;;;;5060426;28;20209;-54
2022/01/03 03:14:45;;;;;;;0.70;0.60;;;;;;;;;;5059238;28;20205;-54
2022/01/03 03:17:13;;;;;;;0.80;0.60;;;;;;;;;;5059345;28;20202;-54
2022/01/03 03:19:53;;;;;;;0.63;0.60;;;;;;;;;;5060020;28;20220;-54
2022/01/03 03:22:20;;;;;;;1.15;0.60;;;;;;;;;;5059989;28;20220;-54
2022/01/03 03:24:48;;;;;;;0.90;0.77;;;;;;;;;;5063497;28;20213;-54
2022/01/03 03:27:15;;;;;;;0.70;0.68;;;;;;;;;;5066191;28;20255;-54
2022/01/03 03:29:49;;;;;;;0.93;0.77;;;;;;;;;;5061788;28;20212;-54
2022/01/03 03:32:16;;;;;;;0.50;0.50;;;;;;;;;;5060357;28;20526;-54
2022/01/03 03:34:44;;;;;;;0.65;0.65;;;;;;;;;;5059838;28;20237;-54
2022/01/03 03:37:14;;;;;;;0.60;0.60;;;;;;;;;;5059988;28;20208;-54
2022/01/03 03:39:43;;;;;;;0.60;0.50;;;;;;;;;;5060000;28;20499;-54
2022/01/03 03:42:11;;;;;;;0.60;0.60;;;;;;;;;;5059447;28;20270;-54
2022/01/03 03:44:39;;;;;;;0.40;0.40;;;;;;;;;;5059606;28;20205;-54
2022/01/03 03:47:08;;;;;;;0.50;0.50;;;;;;;;;;5059296;28;20240;-54
2022/01/03 03:49:36;;;;;;;0.70;0.47;;;;;;;;;;5059432;28;20317;-54
2022/01/03 03:52:04;;;;;;;0.47;0.43;;;;;;;;;;5059705;28;20492;-54
2022/01/03 03:54:32;;;;;;;0.50;0.50;;;;;;;;;;5059280;28;20339;-54
2022/01/03 03:57:00;;;;;;;0.60;0.60;;;;;;;;;;5059214;28;20208;-54
2022/01/03 03:59:27;;;;;;;0.60;0.60;;;;;;;;;;5059370;28;20498;-54
2022/01/03 04:01:55;;;;;;;0.60;0.50;;;;;;;;;;5059263;28;20209;-54
2022/01/03 04:04:25;;;;;;;0.55;0.55;;;;;;;;;;5059011;28;20205;-54
2022/01/03 04:06:52;;;;;;;0.47;0.47;;;;;;;;;;5058822;28;20272;-54
2022/01/03 04:09:20;;;;;;;0.50;0.50;;;;;;;;;;5059401;28;20483;-54
2022/01/03 04:11:47;;;;;;;0.80;0.50;;;;;;;;;;5059518;28;20205;-54
2022/01/03 04:14:14;;;;;;;0.57;0.47;;;;;;;;;;5057895;28;20201;-54
2022/01/03 04:16:42;;;;;;;0.50;0.50;;;;;;;;;;5058274;28;20268;-54
2022/01/03 04:19:10;;;;;;;0.50;0.50;;;;;;;;;;5057921;28;20205;-54
2022/01/03 04:21:39;;;;;;;0.30;0.30;;;;;;;;;;5059312;28;20212;-54
2022/01/03 04:24:07;;;;;;;0.40;0.32;;;;;;;;;;5058684;28;20228;-54
2022/01/03 04:26:35;;;;;;;0.50;0.50;;;;;;;;;;5058481;28;20287;-54
2022/01/03 04:29:02;;;;;;;0.50;0.50;;;;;;;;;;5058757;28;20213;-54
2022/01/03 04:31:29;;;;;;;0.68;0.45;;;;;;;;;;5058494;28;20245;-54
2022/01/03 04:33:57;;;;;;;0.50;0.43;;;;;;;;;;5058368;28;20201;-54
2022/01/03 04:36:24;;;;;;;0.63;0.40;;;;;;;;;;5058458;28;20209;-54
2022/01/03 04:38:53;;;;;;;0.40;0.40;;;;;;;;;;5057907;28;20224;-54
2022/01/03 04:41:21;;;;;;;0.57;0.50;;;;;;;;;;5058402;28;20219;-54
2022/01/03 04:43:48;;;;;;;0.40;0.40;;;;;;;;;;5058253;28;20224;-54
2022/01/03 04:46:16;;;;;;;0.30;0.30;;;;;;;;;;5058349;28;20523;-54
2022/01/03 04:48:43;;;;;;;0.40;0.30;;;;;;;;;;5057795;28;20204;-54
2022/01/03 04:51:11;;;;;;;0.43;0.30;;;;;;;;;;5057828;28;20204;-54
2022/01/03 04:53:40;;;;;;;0.30;0.30;;;;;;;;;;5058433;28;20212;-54
2022/01/03 04:56:09;;;;;;;0.30;0.30;;;;;;;;;;5057608;28;20573;-54
2022/01/03 04:58:37;;;;;;;0.30;0.30;;;;;;;;;;5057661;28;20679;-54
2022/01/03 05:01:05;;;;;;;0.30;0.30;;;;;;;;;;5058287;28;20205;-54
2022/01/03 05:03:32;;;;;;;0.30;0.30;;;;;;;;;;5057902;28;20232;-54
2022/01/03 05:06:01;;;;;;;0.40;0.40;;;;;;;;;;5058157;28;20228;-54
2022/01/03 05:08:29;;;;;;;0.40;0.40;;;;;;;;;;5057104;28;20205;-54
2022/01/03 05:10:56;;;;;;;0.40;0.40;;;;;;;;;;5057633;28;20266;-54
2022/01/03 05:13:25;;;;;;;0.38;0.30;;;;;;;;;;5057602;28;20267;-54
2022/01/03 05:15:53;;;;;;;0.40;0.35;;;;;;;;;;5056415;28;20193;-54
2022/01/03 05:18:20;;;;;;;0.50;0.40;;;;;;;;;;5056937;28;20205;-54
2022/01/03 05:20:47;;;;;;;0.68;0.38;;;;;;;;;;5057525;28;20209;-54
2022/01/03 05:23:15;;;;;;;0.20;0.20;;;;;;;;;;5057446;28;20209;-54
2022/01/03 05:25:42;;;;;;;0.80;0.47;;;;;;;;;;5057272;28;20459;-54
2022/01/03 05:28:10;;;;;;;0.50;0.40;;;;;;;;;;5057174;28;20235;-54
2022/01/03 05:30:38;;;;;;;0.55;0.40;;;;;;;;;;5056889;28;20205;-54
2022/01/03 05:33:06;;;;;;;0.40;0.40;;;;;;;;;;5056923;28;20212;-54
2022/01/03 05:35:33;;;;;;;0.30;0.30;;;;;;;;;;5056825;28;20241;-54
2022/01/03 05:38:01;;;;;;;0.20;0.20;;;;;;;;;;5056744;28;20200;-54
2022/01/03 05:40:28;;;;;;;0.38;0.38;;;;;;;;;;5056296;28;20201;-54
2022/01/03 05:42:55;;;;;;;0.35;0.30;;;;;;;;;;5055979;28;20612;-54
2022/01/03 05:45:23;;;;;;;0.40;0.40;;;;;;;;;;5055537;28;20201;-54
2022/01/03 05:47:52;;;;;;;0.32;0.30;;;;;;;;;;5055413;28;20229;-54
2022/01/03 05:50:19;;;;;;;0.60;0.30;;;;;;;;;;5056062;28;20205;-54
2022/01/03 05:52:46;;;;;;;0.50;0.38;;;;;;;;;;5055625;28;20208;-54
2022/01/03 05:55:14;;;;;;;0.60;0.40;;;;;;;;;;5055552;28;20496;-54
2022/01/03 05:57:42;;;;;;;0.60;0.35;;;;;;;;;;5049730;28;20536;-54
2022/01/03 06:00:13;;;;;;;0.60;0.38;;;;;;;;;;5014823;28;20202;-54
2022/01/03 06:02:42;;;;;;;0.55;0.30;;;;;;;;;;5038466;28;20579;-54
2022/01/03 06:05:18;;;;;;;0.47;0.20;;;;;;;;;;5054823;28;20201;-54
2022/01/03 06:07:46;;;;;;;0.50;0.32;;;;;;;;;;5054113;28;20224;-54
2022/01/03 06:10:15;;;;;;;0.30;0.30;;;;;;;;;;5054380;28;20212;-54
2022/01/03 06:12:45;;;;;;;0.30;0.30;;;;;;;;;;5054173;28;20209;-54
2022/01/03 06:15:13;;;;;;;0.47;0.32;;;;;;;;;;5054416;28;20197;-54
2022/01/03 06:17:40;;;;;;;0.88;0.40;;;;;;;;;;5053879;28;20197;-54
2022/01/03 06:20:09;;;;;;;0.47;0.30;;;;;;;;;;5054222;28;20510;-54
2022/01/03 06:22:39;;;;;;;0.40;0.40;;;;;;;;;;5054322;28;20204;-54
2022/01/03 06:25:06;;;;;;;0.77;0.32;;;;;;;;;;5054648;28;20216;-54
2022/01/03 06:27:34;;;;;;;0.38;0.38;;;;;;;;;;5054432;28;20225;-54
2022/01/03 06:30:01;;;;;;;0.40;0.30;;;;;;;;;;5054015;28;20208;-54
2022/01/03 06:32:28;;;;;;;0.30;0.30;;;;;;;;;;5054122;28;20205;-54
2022/01/03 06:34:56;;;;;;;0.57;0.40;;;;;;;;;;5053478;28;20237;-54
2022/01/03 06:37:23;;;;;;;0.40;0.35;;;;;;;;;;5053670;28;20220;-54
2022/01/03 06:39:52;;;;;;;0.60;0.30;;;;;;;;;;5054910;28;20197;-54
2022/01/03 06:42:19;;;;;;;0.40;0.40;;;;;;;;;;5055515;28;20204;-54
2022/01/03 06:44:48;;;;;;;0.40;0.30;;;;;;;;;;5057744;28;20211;-54
2022/01/03 06:47:17;;;;;;;0.43;0.32;;;;;;;;;;5057607;28;20229;-55
2022/01/03 06:49:47;;;;;;;0.38;0.38;;;;;;;;;;5058490;28;20205;-54
2022/01/03 06:52:15;;;;;;;0.50;0.30;;;;;;;;;;5061336;28;20242;-54
2022/01/03 06:54:43;;;;;;;0.25;0.20;;;;;;;;;;5064433;28;20263;-55
2022/01/03 06:57:12;;;;;;;0.40;0.35;;;;;;;;;;5062181;28;20201;-54
2022/01/03 06:59:39;;;;;;;0.50;0.30;;;;;;;;;;5057888;28;20201;-54
2022/01/03 07:02:07;;;;;;;0.30;0.30;;;;;;;;;;5058620;28;20205;-54
2022/01/03 07:04:35;;;;;;;0.40;0.30;;;;;;;;;;5058310;28;20205;-54
2022/01/03 07:07:02;;;;;;;0.30;0.20;;;;;;;;;;5057607;28;20229;-54
2022/01/03 07:09:29;;;;;;;0.30;0.30;;;;;;;;;;5058439;28;20333;-54
2022/01/03 07:11:57;;;;;;;0.25;0.25;;;;;;;;;;5058305;28;20208;-54
2022/01/03 07:20:09;;;;;;;0.50;0.30;;;;;;;;;;4996810;28;20198;-54
2022/01/03 07:22:40;;;;;;;0.40;0.22;;;;;;;;;;5043186;28;20232;-54
2022/01/03 07:25:07;;;;;;;0.47;0.40;;;;;;;;;;5058090;28;20197;-54
2022/01/03 07:27:35;;;;;;;0.50;0.30;;;;;;;;;;5057603;28;20239;-54
2022/01/03 07:30:05;;;;;;;0.65;0.30;;;;;;;;;;5058593;28;20503;-54
2022/01/03 07:32:32;;;;;;;0.30;0.30;;;;;;;;;;5058714;28;20224;-54
2022/01/03 07:34:59;;;;;;;0.20;0.20;;;;;;;;;;5058064;28;20229;-54
2022/01/03 07:37:26;;;;;;;0.82;0.30;;;;;;;;;;5058089;28;20201;-54
2022/01/03 07:39:54;;;;;;;0.63;0.40;;;;;;;;;;5058123;28;20625;-54
2022/01/03 07:42:22;;;;;;;0.40;0.30;;;;;;;;;;5057553;28;20567;-54
2022/01/03 07:44:49;;;;;;;0.47;0.43;;;;;;;;;;5058498;28;20204;-54
2022/01/03 07:47:18;;;;;;;0.30;0.30;;;;;;;;;;5057469;28;20643;-54
2022/01/03 07:49:45;;;;;;;0.35;0.28;;;;;;;;;;5058310;28;20209;-54
2022/01/03 07:52:12;;;;;;;0.40;0.25;;;;;;;;;;5057888;28;20662;-57
2022/01/03 07:54:39;;;;;;;0.40;0.30;;;;;;;;;;5056561;28;20205;-54
2022/01/03 07:57:07;;;;;;;0.68;0.40;;;;;;;;;;5056991;28;20612;-54
2022/01/03 07:59:34;;;;;;;0.50;0.30;;;;;;;;;;5057573;28;20204;-54
2022/01/03 08:02:01;;;;;;;0.50;0.30;;;;;;;;;;5057293;28;20216;-54
2022/01/03 08:04:30;;;;;;;0.50;0.30;;;;;;;;;;5057479;28;20205;-54
2022/01/03 08:06:57;;;;;;;0.47;0.30;;;;;;;;;;5057357;28;20817;-54
2022/01/03 08:09:25;;;;;;;0.95;0.40;;;;;;;;;;5057042;28;20196;-54
2022/01/03 08:11:52;;;;;;;0.80;0.30;;;;;;;;;;5057626;28;20447;-54
2022/01/03 08:14:20;;;;;;;0.80;0.40;;;;;;;;;;5057794;28;20209;-54
2022/01/03 08:16:47;;;;;;;0.30;0.28;;;;;;;;;;5056848;28;20232;-54
2022/01/03 08:19:14;;;;;;;0.90;0.28;;;;;;;;;;5056930;28;20205;-54
2022/01/03 08:21:43;;;;;;;0.77;0.30;;;;;;;;;;5056749;28;20197;-54
2022/01/03 08:24:11;;;;;;;0.75;0.47;;;;;;;;;;5056777;28;20208;-54
2022/01/03 08:26:38;;;;;;;0.82;0.40;;;;;;;;;;5056866;28;20635;-54
2022/01/03 08:29:06;;;;;;;0.50;0.28;;;;;;;;;;5056917;28;20229;-54
2022/01/03 08:31:33;;;;;;;0.93;0.30;;;;;;;;;;5056775;28;20247;-54
2022/01/03 08:34:01;;;;;;;1.17;0.40;;;;;;;;;;5056236;28;20224;-54
2022/01/03 08:36:28;;;;;;;0.35;0.28;;;;;;;;;;5057413;28;20205;-54
2022/01/03 08:38:57;;;;;;;0.57;0.30;;;;;;;;;;5056400;28;20209;-54
2022/01/03 08:41:24;;;;;;;4.05;0.65;;;;;;;;;;5056581;28;20727;-54
2022/01/03 08:43:52;;;;;;;4.65;0.85;;;;;;;;;;5056223;28;20200;-54
2022/01/03 08:46:19;;;;;;;4.03;0.57;;;;;;;;;;5055818;28;20204;-54
2022/01/03 08:48:46;;;;;;;1.60;0.50;;;;;;;;;;5056764;28;20496;-54
2022/01/03 08:51:14;;;;;;;2.90;0.60;;;;;;;;;;5059635;28;20201;-54
2022/01/03 08:53:41;;;;;;;0.93;0.40;;;;;;;;;;5056125;28;20220;-54
2022/01/03 08:56:10;;;;;;;1.17;0.40;;;;;;;;;;5055461;28;20216;-54
2022/01/03 08:58:37;;;;;;;1.60;0.50;;;;;;;;;;5055966;28;20201;-54
2022/01/03 09:01:04;;;;;;;2.05;0.57;;;;;;;;;;5055488;28;20197;-54
2022/01/03 09:03:32;;;;;;;1.45;0.40;;;;;;;;;;5055958;28;20205;-54
2022/01/03 09:06:00;;;;;;;3.42;0.70;;;;;;;;;;5055396;28;20215;-54
2022/01/03 09:08:27;;;;;;;2.05;0.50;;;;;;;;;;5055591;28;20229;-54
2022/01/03 09:10:56;;;;;;;1.30;0.50;;;;;;;;;;5054542;28;20189;-54
2022/01/03 09:13:25;;;;;;;0.95;0.40;;;;;;;;;;5055963;28;20205;-54
2022/01/03 09:15:52;;;;;;;0.70;0.30;;;;;;;;;;5056227;28;20216;-54
2022/01/03 09:18:24;;;;;;;1.58;0.60;;;;;;;;;;5055862;28;20197;-54
2022/01/03 09:20:51;;;;;;;1.52;0.30;;;;;;;;;;5055266;28;20205;-54
2022/01/03 09:23:24;;;;;;;2.08;0.52;;;;;;;;;;5055417;28;20604;-54
2022/01/03 09:28:53;;;;;;;0.80;0.40;;;;;;;;;;5014957;28;20266;-54
2022/01/03 09:31:22;;;;;;;0.88;0.47;;;;;;;;;;5016298;28;20217;-54
2022/01/03 09:33:50;;;;;;;1.70;0.50;;;;;;;;;;5018824;28;20214;-54
2022/01/03 09:36:17;;;;;;;0.95;0.60;;;;;;;;;;5024792;28;20288;-54
2022/01/03 09:38:45;;;;;;;2.45;0.50;;;;;;;;;;5054234;28;20204;-54
2022/01/03 09:41:13;;;;;;;0.88;0.50;;;;;;;;;;5055598;28;20201;-54
2022/01/03 09:43:49;;;;;;;1.65;0.60;;;;;;;;;;5056652;28;20215;-54
2022/01/03 09:46:19;;;;;;;1.38;0.50;;;;;;;;;;5057110;28;20204;-54
2022/01/03 09:48:51;;;;;;;1.42;0.57;;;;;;;;;;5055006;28;20260;-54
2022/01/03 09:51:19;;;;;;;2.75;0.50;;;;;;;;;;5055210;28;20213;-55
2022/01/03 09:53:47;;;;;;;1.88;0.60;;;;;;;;;;5054972;28;20208;-54
2022/01/03 09:56:14;;;;;;;0.63;0.50;;;;;;;;;;5054968;28;20213;-54
2022/01/03 09:58:43;;;;;;;2.67;0.50;;;;;;;;;;5054721;28;20201;-54
2022/01/03 10:01:11;;;;;;;1.42;0.63;;;;;;;;;;5054890;28;20589;-54
2022/01/03 10:03:41;;;;;;;1.95;0.60;;;;;;;;;;5040281;28;20201;-54
2022/01/03 10:06:08;;;;;;;1.38;0.50;;;;;;;;;;5055112;28;20209;-54
2022/01/03 10:08:35;;;;;;;1.80;0.50;;;;;;;;;;5055446;28;20527;-54
2022/01/03 10:11:03;;;;;;;2.10;0.70;;;;;;;;;;5054448;28;20589;-54
2022/01/03 10:13:30;;;;;;;0.98;0.50;;;;;;;;;;5055427;28;20205;-54
2022/01/03 10:15:59;;;;;;;1.02;0.60;;;;;;;;;;5055857;28;20219;-54
2022/01/03 10:18:27;;;;;;;0.88;0.45;;;;;;;;;;5059754;28;20200;-54
2022/01/03 10:20:56;;;;;;;1.50;0.60;;;;;;;;;;5062714;28;20260;-54
2022/01/03 10:23:23;;;;;;;1.50;0.80;;;;;;;;;;5064256;28;20266;-54
2022/01/03 10:25:51;;;;;;;2.22;0.60;;;;;;;;;;5050441;28;20198;-54
2022/01/03 10:28:25;;;;;;;2.58;0.77;;;;;;;;;;5038799;28;20225;-54
2022/01/03 10:30:52;;;;;;;1.73;0.60;;;;;;;;;;5043840;28;20220;-54
2022/01/03 10:33:22;;;;;;;2.10;0.68;;;;;;;;;;5058068;28;20200;-54
2022/01/03 10:35:50;;;;;;;1.23;0.70;;;;;;;;;;5058814;28;20236;-54
2022/01/03 10:38:31;;;;;;;1.88;0.60;;;;;;;;;;5058883;28;20605;-54
2022/01/03 10:41:10;;;;;;;1.45;0.60;;;;;;;;;;5019070;28;20233;-54
2022/01/03 10:43:38;;;;;;;1.80;0.50;;;;;;;;;;5017683;28;20217;-54
2022/01/03 10:46:17;;;;;;;1.60;0.50;;;;;;;;;;5018416;28;20245;-54
2022/01/03 10:48:47;;;;;;;2.50;0.70;;;;;;;;;;5017780;28;20315;-54
2022/01/03 10:51:21;;;;;;;2.10;0.40;;;;;;;;;;5017771;28;20210;-54
2022/01/03 10:53:50;;;;;;;1.38;0.60;;;;;;;;;;5016991;28;20213;-54
2022/01/03 10:56:42;;;;;;;1.00;0.60;;;;;;;;;;5018005;28;20209;-54
2022/01/03 10:59:21;;;;;;;2.92;0.70;;;;;;;;;;5031638;28;20208;-54
2022/01/03 11:01:50;;;;;;;2.60;0.60;;;;;;;;;;5058015;28;20209;-54
2022/01/03 11:04:29;;;;;;;1.70;0.50;;;;;;;;;;5057488;28;20215;-54
2022/01/03 11:13:04;;;;;;;3.08;0.60;;;;;;;;;;5056916;28;20207;-54
2022/01/03 11:15:32;;;;;;;0.85;0.60;;;;;;;;;;5057415;28;20196;-54
2022/01/03 11:18:09;;;;;;;0.50;0.50;;;;;;;;;;5056389;28;20193;-54
2022/01/03 11:20:38;;;;;;;2.20;0.60;;;;;;;;;;5056957;28;20196;-54
2022/01/03 11:23:05;;;;;;;1.33;0.50;;;;;;;;;;5057166;28;20204;-54
2022/01/03 11:25:33;;;;;;;2.35;0.60;;;;;;;;;;5056524;28;20201;-54
2022/01/03 11:28:01;;;;;;;1.58;0.57;;;;;;;;;;5056591;28;20244;-54
2022/01/03 11:30:28;;;;;;;1.70;0.50;;;;;;;;;;5057776;28;20201;-54
2022/01/03 11:32:56;;;;;;;1.48;0.70;;;;;;;;;;5056706;28;20205;-54
2022/01/03 11:35:24;;;;;;;2.03;0.52;;;;;;;;;;5056708;28;20757;-54
2022/01/03 11:37:54;;;;;;;2.22;0.55;;;;;;;;;;5057192;28;20671;-54
2022/01/03 11:40:22;;;;;;;1.15;0.70;;;;;;;;;;5056669;28;20205;-54
2022/01/03 11:42:50;;;;;;;0.88;0.60;;;;;;;;;;5056956;28;20216;-54
2022/01/03 11:45:17;;;;;;;1.58;0.60;;;;;;;;;;5056380;28;20204;-54
2022/01/03 11:47:45;;;;;;;1.52;1.00;;;;;;;;;;5055854;28;20220;-54
2022/01/03 11:50:12;;;;;;;1.52;0.68;;;;;;;;;;5055866;28;20201;-54
2022/01/03 11:52:41;;;;;;;1.65;0.98;;;;;;;;;;5056814;28;20200;-54
2022/01/03 11:55:12;;;;;;;3.25;0.90;;;;;;;;;;5054989;28;20529;-54
2022/01/03 11:58:09;;;;;;;2.03;0.70;;;;;;;;;;5055752;28;20215;-54
2022/01/03 12:06:06;;;;;;;1.73;0.70;;;;;;;;;;5054874;28;20207;-54
2022/01/03 12:08:34;;;;;;;1.33;0.60;;;;;;;;;;5055921;28;20260;-54
2022/01/03 12:11:03;;;;;;;1.80;0.68;;;;;;;;;;5056067;28;20205;-54
2022/01/03 12:13:50;;;;;;;2.08;0.57;;;;;;;;;;5055160;28;20526;-54
2022/01/03 12:16:17;;;;;;;2.00;0.75;;;;;;;;;;5055460;28;20216;-54
2022/01/03 12:19:01;;;;;;;1.48;0.63;;;;;;;;;;5055809;28;20216;-54
2022/01/03 12:21:47;;;;;;;1.48;0.75;;;;;;;;;;5055964;28;20737;-54
2022/01/03 12:24:29;;;;;;;1.25;0.50;;;;;;;;;;5056077;28;20217;-54
2022/01/03 12:27:11;;;;;;;1.92;0.85;;;;;;;;;;5054936;28;20215;-54
2022/01/03 12:29:53;;;;;;;2.03;0.70;;;;;;;;;;5054605;28;20221;-54
2022/01/03 12:32:22;;;;;;;1.80;0.68;;;;;;;;;;5055466;28;20215;-55
2022/01/03 12:35:15;;;;;;;1.90;1.00;;;;;;;;;;5055464;28;20232;-54
2022/01/03 12:37:43;;;;;;;5.75;0.82;;;;;;;;;;5054697;28;20240;-54
2022/01/03 12:40:11;;;;;;;2.83;1.20;;;;;;;;;;5054030;28;20503;-54
2022/01/03 12:42:55;;;;;;;4.10;1.08;;;;;;;;;;5054318;28;20509;-54
2022/01/03 12:45:40;;;;;;;3.50;1.23;;;;;;;;;;5055435;28;20543;-54
2022/01/03 12:48:22;;;;;;;2.17;1.10;;;;;;;;;;5045513;28;20228;-54
2022/01/03 12:51:04;;;;;;;2.35;1.05;;;;;;;;;;5054803;28;20205;-54
2022/01/03 12:53:45;;;;;;;2.45;1.02;;;;;;;;;;5054933;28;20200;-54
2022/01/03 12:56:13;;;;;;;2.72;1.02;;;;;;;;;;5055385;28;20197;-54
2022/01/03 12:58:45;;;;;;;2.58;1.00;;;;;;;;;;5055228;28;20235;-54
2022/01/03 13:01:25;;;;;;;1.70;1.00;;;;;;;;;;5055780;28;20209;-54
2022/01/03 13:03:54;;;;;;;4.35;1.10;;;;;;;;;;5054637;28;20208;-54
2022/01/03 13:06:23;;;;;;;2.28;1.00;;;;;;;;;;5054411;28;20197;-54
2022/01/03 13:09:13;;;;;;;3.97;1.30;;;;;;;;;;5054625;28;20799;-54
2022/01/03 13:11:43;;;;;;;2.28;0.93;;;;;;;;;;5054861;28;20205;-54
2022/01/03 13:14:12;;;;;;;2.28;0.85;;;;;;;;;;5054530;28;20211;-54
2022/01/03 13:16:40;;;;;;;2.92;0.95;;;;;;;;;;5053688;28;20691;-54
2022/01/03 13:19:12;;;;;;;2.10;0.90;;;;;;;;;;5053781;28;20208;-54
2022/01/03 13:21:40;;;;;;;4.13;1.20;;;;;;;;;;5054386;28;20259;-54
2022/01/03 13:24:12;;;;;;;2.55;1.00;;;;;;;;;;5053855;28;20262;-54
2022/01/03 13:26:56;;;;;;;2.50;1.00;;;;;;;;;;5053411;28;20569;-54
2022/01/03 13:29:24;;;;;;;3.00;1.05;;;;;;;;;;5053968;28;20221;-55
2022/01/03 13:31:52;;;;;;;1.80;0.80;;;;;;;;;;5053515;28;20581;-54
2022/01/03 13:34:22;;;;;;;1.92;1.00;;;;;;;;;;5053513;28;20247;-54
2022/01/03 13:36:50;;;;;;;2.42;1.00;;;;;;;;;;5053263;28;20205;-54
2022/01/03 13:39:18;;;;;;;4.05;1.08;;;;;;;;;;5054100;28;20209;-54
2022/01/03 13:41:46;;;;;;;1.85;1.00;;;;;;;;;;5053083;28;20765;-54
2022/01/03 13:44:24;;;;;;;2.80;0.88;;;;;;;;;;5052500;28;20232;-54
2022/01/03 13:49:43;;;;;;;1.40;0.82;;;;;;;;;;5057441;28;20604;-54
2022/01/03 13:52:10;;;;;;;3.00;1.17;;;;;;;;;;5054999;28;20224;-54
2022/01/03 13:54:40;;;;;;;2.10;0.90;;;;;;;;;;5052521;28;20224;-54
2022/01/03 13:57:08;;;;;;;2.45;1.10;;;;;;;;;;5053361;28;20204;-54
2022/01/03 13:59:37;;;;;;;1.88;0.82;;;;;;;;;;5053691;28;20213;-54
2022/01/03 14:02:06;;;;;;;1.73;0.80;;;;;;;;;;5053068;28;20205;-54
2022/01/03 14:04:34;;;;;;;1.48;0.82;;;;;;;;;;5052354;28;20290;-54
2022/01/03 14:07:07;;;;;;;2.28;1.02;;;;;;;;;;5053928;28;20201;-54
2022/01/03 14:09:42;;;;;;;1.90;1.10;;;;;;;;;;5053231;28;20220;-54
2022/01/03 14:12:10;;;;;;;4.03;2.55;;;;;;;;;;5052950;28;20200;-54
2022/01/03 14:14:38;;;;;;;7.18;4.68;;;;;;;;;;5052916;28;20215;-54
2022/01/03 14:17:07;;;;;;;5.07;3.63;;;;;;;;;;5052907;28;20205;-54
2022/01/03 14:19:35;;;;;;;5.03;3.20;;;;;;;;;;5052956;28;20201;-54
2022/01/03 14:22:12;;;;;;;5.35;3.60;;;;;;;;;;5053173;28;20239;-55
2022/01/03 14:24:55;;;;;;;5.53;3.13;;;;;;;;;;5053807;28;20200;-54
2022/01/03 14:27:22;;;;;;;4.20;2.90;;;;;;;;;;5053115;28;20205;-54
2022/01/03 14:29:50;;;;;;;4.70;3.15;;;;;;;;;;5053344;28;20727;-54
2022/01/03 14:32:17;;;;;;;5.38;3.17;;;;;;;;;;5053392;28;20501;-54
2022/01/03 14:34:51;;;;;;;5.43;3.00;;;;;;;;;;5052496;28;20233;-54
2022/01/03 14:37:30;;;;;;;4.50;2.70;;;;;;;;;;5052949;28;20228;-54
2022/01/03 14:39:57;;;;;;;4.93;2.67;;;;;;;;;;5052728;28;20197;-54
2022/01/03 14:42:25;;;;;;;5.25;2.90;;;;;;;;;;5053371;28;20217;-54
2022/01/03 14:44:53;;;;;;;4.65;2.60;;;;;;;;;;5053295;28;20604;-54
2022/01/03 14:47:25;;;;;;;4.05;2.58;;;;;;;;;;5053100;28;20212;-54
2022/01/03 14:49:57;;;;;;;5.57;2.78;;;;;;;;;;5051310;28;20248;-54
2022/01/03 14:52:33;;;;;;;4.13;2.75;;;;;;;;;;5052525;28;20205;-54
2022/01/03 14:55:00;;;;;;;5.10;2.75;;;;;;;;;;5052020;28;20466;-54
2022/01/03 14:57:29;;;;;;;3.13;2.20;;;;;;;;;;5053196;28;20197;-54
2022/01/03 14:59:57;;;;;;;3.95;2.47;;;;;;;;;;5051993;28;20212;-54
2022/01/03 15:02:26;;;;;;;5.00;2.40;;;;;;;;;;5052427;28;20487;-55
2022/01/03 15:04:55;;;;;;;3.08;2.28;;;;;;;;;;5056060;28;20597;-54
2022/01/03 15:07:23;;;;;;;2.95;1.98;;;;;;;;;;5055827;28;20499;-54
2022/01/03 15:09:52;;;;;;;2.88;2.15;;;;;;;;;;5055703;28;20225;-54
2022/01/03 15:12:20;;;;;;;3.58;1.92;;;;;;;;;;5056217;28;20197;-54
2022/01/03 15:14:48;;;;;;;3.42;2.17;;;;;;;;;;5055895;28;20216;-54
2022/01/03 15:17:15;;;;;;;3.05;2.08;;;;;;;;;;5055988;28;20205;-54
2022/01/03 15:19:43;;;;;;;2.78;2.05;;;;;;;;;;5055976;28;20197;-54